sensor_id;sensor_type;location;lat;lon;timestamp;P1;durP1;ratioP1;P2;durP2;ratioP2
60241;SDS011;46103;52.076;113.488;2023-02-22T00:02:45;344.92;;;107.50;;
60241;SDS011;46103;52.076;113.488;2023-02-22T00:05:56;255.68;;;78.97;;
60241;SDS011;46103;52.076;113.488;2023-02-22T00:09:01;219.13;;;70.47;;
60241;SDS011;46103;52.076;113.488;2023-02-22T00:12:05;311.08;;;101.22;;
60241;SDS011;46103;52.076;113.488;2023-02-22T00:15:10;317.67;;;100.68;;
60241;SDS011;46103;52.076;113.488;2023-02-22T00:18:16;282.92;;;97.15;;
60241;SDS011;46103;52.076;113.488;2023-02-22T00:21:22;294.35;;;96.55;;
60241;SDS011;46103;52.076;113.488;2023-02-22T00:24:25;245.73;;;82.55;;
60241;SDS011;46103;52.076;113.488;2023-02-22T00:27:28;278.17;;;84.30;;
60241;SDS011;46103;52.076;113.488;2023-02-22T00:30:31;256.90;;;79.65;;
60241;SDS011;46103;52.076;113.488;2023-02-22T00:33:37;221.75;;;73.72;;
60241;SDS011;46103;52.076;113.488;2023-02-22T00:36:45;221.07;;;75.40;;
60241;SDS011;46103;52.076;113.488;2023-02-22T00:39:50;221.18;;;74.40;;
60241;SDS011;46103;52.076;113.488;2023-02-22T00:42:54;245.93;;;80.75;;
60241;SDS011;46103;52.076;113.488;2023-02-22T00:45:57;247.73;;;76.32;;
60241;SDS011;46103;52.076;113.488;2023-02-22T00:49:01;243.07;;;77.53;;
60241;SDS011;46103;52.076;113.488;2023-02-22T00:52:10;260.20;;;88.72;;
60241;SDS011;46103;52.076;113.488;2023-02-22T00:55:15;264.02;;;87.90;;
60241;SDS011;46103;52.076;113.488;2023-02-22T00:58:21;262.40;;;84.50;;
60241;SDS011;46103;52.076;113.488;2023-02-22T01:01:26;283.05;;;93.18;;
60241;SDS011;46103;52.076;113.488;2023-02-22T01:04:30;270.60;;;88.88;;
60241;SDS011;46103;52.076;113.488;2023-02-22T01:07:34;289.92;;;93.57;;
60241;SDS011;46103;52.076;113.488;2023-02-22T01:10:37;291.13;;;92.10;;
60241;SDS011;46103;52.076;113.488;2023-02-22T01:13:42;268.25;;;87.95;;
60241;SDS011;46103;52.076;113.488;2023-02-22T01:16:49;255.68;;;81.18;;
60241;SDS011;46103;52.076;113.488;2023-02-22T01:19:53;269.05;;;92.60;;
60241;SDS011;46103;52.076;113.488;2023-02-22T01:22:57;304.55;;;95.65;;
60241;SDS011;46103;52.076;113.488;2023-02-22T01:26:03;299.40;;;97.75;;
60241;SDS011;46103;52.076;113.488;2023-02-22T01:29:11;279.98;;;95.18;;
60241;SDS011;46103;52.076;113.488;2023-02-22T01:32:18;312.48;;;100.38;;
60241;SDS011;46103;52.076;113.488;2023-02-22T01:35:24;309.98;;;97.03;;
60241;SDS011;46103;52.076;113.488;2023-02-22T01:38:31;302.30;;;106.63;;
60241;SDS011;46103;52.076;113.488;2023-02-22T01:41:35;256.00;;;85.28;;
60241;SDS011;46103;52.076;113.488;2023-02-22T01:44:40;277.05;;;87.93;;
60241;SDS011;46103;52.076;113.488;2023-02-22T01:47:44;215.13;;;70.97;;
60241;SDS011;46103;52.076;113.488;2023-02-22T01:50:51;136.15;;;45.53;;
60241;SDS011;46103;52.076;113.488;2023-02-22T01:54:02;69.53;;;26.15;;
60241;SDS011;46103;52.076;113.488;2023-02-22T01:57:21;101.95;;;33.50;;
60241;SDS011;46103;52.076;113.488;2023-02-22T02:00:31;90.75;;;32.88;;
60241;SDS011;46103;52.076;113.488;2023-02-22T02:03:35;134.82;;;46.15;;
60241;SDS011;46103;52.076;113.488;2023-02-22T02:06:41;81.55;;;30.38;;
60241;SDS011;46103;52.076;113.488;2023-02-22T02:09:56;90.68;;;33.63;;
60241;SDS011;46103;52.076;113.488;2023-02-22T02:13:04;68.93;;;24.88;;
60241;SDS011;46103;52.076;113.488;2023-02-22T02:16:07;72.47;;;27.15;;
60241;SDS011;46103;52.076;113.488;2023-02-22T02:25:53;119.82;;;41.70;;
60241;SDS011;46103;52.076;113.488;2023-02-22T02:39:50;78.30;;;28.33;;
60241;SDS011;46103;52.076;113.488;2023-02-22T02:46:42;109.68;;;36.45;;
60241;SDS011;46103;52.076;113.488;2023-02-22T02:49:53;89.05;;;31.52;;
60241;SDS011;46103;52.076;113.488;2023-02-22T02:53:04;84.18;;;28.33;;
60241;SDS011;46103;52.076;113.488;2023-02-22T02:56:10;75.88;;;24.92;;
60241;SDS011;46103;52.076;113.488;2023-02-22T02:59:23;59.47;;;20.48;;
60241;SDS011;46103;52.076;113.488;2023-02-22T03:02:39;47.22;;;18.08;;
60241;SDS011;46103;52.076;113.488;2023-02-22T03:15:57;51.58;;;18.67;;
60241;SDS011;46103;52.076;113.488;2023-02-22T03:19:27;55.65;;;18.00;;
60241;SDS011;46103;52.076;113.488;2023-02-22T03:22:51;36.80;;;14.27;;
60241;SDS011;46103;52.076;113.488;2023-02-22T03:26:02;62.38;;;18.13;;
60241;SDS011;46103;52.076;113.488;2023-02-22T03:29:12;44.80;;;17.55;;
60241;SDS011;46103;52.076;113.488;2023-02-22T03:32:20;48.07;;;19.27;;
60241;SDS011;46103;52.076;113.488;2023-02-22T03:38:33;48.55;;;19.85;;
60241;SDS011;46103;52.076;113.488;2023-02-22T03:41:39;48.70;;;16.30;;
60241;SDS011;46103;52.076;113.488;2023-02-22T03:44:45;52.45;;;19.35;;
60241;SDS011;46103;52.076;113.488;2023-02-22T03:47:56;54.08;;;19.98;;
60241;SDS011;46103;52.076;113.488;2023-02-22T03:51:05;55.63;;;19.52;;
60241;SDS011;46103;52.076;113.488;2023-02-22T03:54:08;49.67;;;19.00;;
60241;SDS011;46103;52.076;113.488;2023-02-22T03:57:24;45.83;;;17.60;;
60241;SDS011;46103;52.076;113.488;2023-02-22T04:00:38;33.97;;;14.38;;
60241;SDS011;46103;52.076;113.488;2023-02-22T04:03:46;43.58;;;15.43;;
60241;SDS011;46103;52.076;113.488;2023-02-22T04:06:50;44.33;;;15.52;;
60241;SDS011;46103;52.076;113.488;2023-02-22T04:09:55;40.63;;;15.90;;
60241;SDS011;46103;52.076;113.488;2023-02-22T04:12:59;41.53;;;15.25;;
60241;SDS011;46103;52.076;113.488;2023-02-22T04:16:03;47.42;;;16.27;;
60241;SDS011;46103;52.076;113.488;2023-02-22T04:19:06;37.65;;;14.70;;
60241;SDS011;46103;52.076;113.488;2023-02-22T04:22:11;37.70;;;11.73;;
60241;SDS011;46103;52.076;113.488;2023-02-22T04:25:16;38.60;;;15.00;;
60241;SDS011;46103;52.076;113.488;2023-02-22T04:28:21;26.70;;;10.95;;
60241;SDS011;46103;52.076;113.488;2023-02-22T04:31:32;27.23;;;9.60;;
60241;SDS011;46103;52.076;113.488;2023-02-22T04:34:36;25.30;;;10.45;;
60241;SDS011;46103;52.076;113.488;2023-02-22T04:37:40;21.48;;;9.20;;
60241;SDS011;46103;52.076;113.488;2023-02-22T04:40:43;23.48;;;7.75;;
60241;SDS011;46103;52.076;113.488;2023-02-22T04:43:48;18.58;;;6.60;;
60241;SDS011;46103;52.076;113.488;2023-02-22T04:46:55;18.60;;;6.45;;
60241;SDS011;46103;52.076;113.488;2023-02-22T04:49:59;18.38;;;7.10;;
60241;SDS011;46103;52.076;113.488;2023-02-22T04:53:03;16.00;;;6.63;;
60241;SDS011;46103;52.076;113.488;2023-02-22T04:56:09;14.65;;;4.97;;
60241;SDS011;46103;52.076;113.488;2023-02-22T04:59:12;17.88;;;5.95;;
60241;SDS011;46103;52.076;113.488;2023-02-22T05:02:19;15.93;;;6.45;;
60241;SDS011;46103;52.076;113.488;2023-02-22T05:05:22;17.88;;;7.53;;
60241;SDS011;46103;52.076;113.488;2023-02-22T05:08:25;20.92;;;7.22;;
60241;SDS011;46103;52.076;113.488;2023-02-22T05:11:28;27.45;;;11.18;;
60241;SDS011;46103;52.076;113.488;2023-02-22T05:14:31;24.05;;;9.00;;
60241;SDS011;46103;52.076;113.488;2023-02-22T05:17:36;23.73;;;9.77;;
60241;SDS011;46103;52.076;113.488;2023-02-22T05:20:39;23.00;;;9.85;;
60241;SDS011;46103;52.076;113.488;2023-02-22T05:23:43;29.15;;;11.82;;
60241;SDS011;46103;52.076;113.488;2023-02-22T05:26:47;26.27;;;10.10;;
60241;SDS011;46103;52.076;113.488;2023-02-22T05:29:52;30.50;;;12.48;;
60241;SDS011;46103;52.076;113.488;2023-02-22T05:32:56;36.33;;;14.10;;
60241;SDS011;46103;52.076;113.488;2023-02-22T05:36:01;31.63;;;12.75;;
60241;SDS011;46103;52.076;113.488;2023-02-22T05:39:04;32.13;;;10.30;;
60241;SDS011;46103;52.076;113.488;2023-02-22T05:42:08;29.55;;;11.38;;
60241;SDS011;46103;52.076;113.488;2023-02-22T05:45:11;24.75;;;10.88;;
60241;SDS011;46103;52.076;113.488;2023-02-22T05:48:15;18.52;;;7.55;;
60241;SDS011;46103;52.076;113.488;2023-02-22T05:51:18;20.08;;;7.15;;
60241;SDS011;46103;52.076;113.488;2023-02-22T05:54:23;24.08;;;9.05;;
60241;SDS011;46103;52.076;113.488;2023-02-22T05:57:26;18.70;;;8.20;;
60241;SDS011;46103;52.076;113.488;2023-02-22T06:00:31;27.30;;;10.18;;
60241;SDS011;46103;52.076;113.488;2023-02-22T06:03:34;18.08;;;7.22;;
60241;SDS011;46103;52.076;113.488;2023-02-22T06:06:38;24.48;;;8.65;;
60241;SDS011;46103;52.076;113.488;2023-02-22T06:09:42;31.13;;;10.65;;
60241;SDS011;46103;52.076;113.488;2023-02-22T06:12:47;22.38;;;9.45;;
60241;SDS011;46103;52.076;113.488;2023-02-22T06:15:51;23.65;;;10.10;;
60241;SDS011;46103;52.076;113.488;2023-02-22T06:18:56;24.13;;;10.00;;
60241;SDS011;46103;52.076;113.488;2023-02-22T06:22:01;17.98;;;7.20;;
60241;SDS011;46103;52.076;113.488;2023-02-22T06:25:05;21.60;;;9.40;;
60241;SDS011;46103;52.076;113.488;2023-02-22T06:28:09;31.58;;;11.05;;
60241;SDS011;46103;52.076;113.488;2023-02-22T06:31:12;31.48;;;11.23;;
60241;SDS011;46103;52.076;113.488;2023-02-22T06:34:16;26.55;;;10.07;;
60241;SDS011;46103;52.076;113.488;2023-02-22T06:37:20;28.98;;;10.07;;
60241;SDS011;46103;52.076;113.488;2023-02-22T06:40:25;32.28;;;10.77;;
60241;SDS011;46103;52.076;113.488;2023-02-22T06:43:32;23.92;;;10.20;;
60241;SDS011;46103;52.076;113.488;2023-02-22T06:46:37;9.65;;;4.22;;
60241;SDS011;46103;52.076;113.488;2023-02-22T06:49:41;5.63;;;2.72;;
60241;SDS011;46103;52.076;113.488;2023-02-22T06:52:45;8.43;;;2.88;;
60241;SDS011;46103;52.076;113.488;2023-02-22T06:55:51;4.75;;;2.05;;
60241;SDS011;46103;52.076;113.488;2023-02-22T06:58:57;7.68;;;3.53;;
60241;SDS011;46103;52.076;113.488;2023-02-22T07:02:03;10.25;;;3.35;;
60241;SDS011;46103;52.076;113.488;2023-02-22T07:05:10;9.32;;;3.17;;
60241;SDS011;46103;52.076;113.488;2023-02-22T07:08:20;7.07;;;3.00;;
60241;SDS011;46103;52.076;113.488;2023-02-22T07:11:24;6.05;;;2.85;;
60241;SDS011;46103;52.076;113.488;2023-02-22T07:14:27;5.85;;;2.55;;
60241;SDS011;46103;52.076;113.488;2023-02-22T07:17:31;11.15;;;3.78;;
60241;SDS011;46103;52.076;113.488;2023-02-22T07:20:35;15.43;;;6.28;;
60241;SDS011;46103;52.076;113.488;2023-02-22T07:23:39;17.27;;;6.13;;
60241;SDS011;46103;52.076;113.488;2023-02-22T07:26:42;12.98;;;4.22;;
60241;SDS011;46103;52.076;113.488;2023-02-22T07:29:45;5.95;;;3.20;;
60241;SDS011;46103;52.076;113.488;2023-02-22T07:32:50;4.63;;;2.53;;
60241;SDS011;46103;52.076;113.488;2023-02-22T07:35:55;5.43;;;2.90;;
60241;SDS011;46103;52.076;113.488;2023-02-22T07:38:58;8.48;;;3.47;;
60241;SDS011;46103;52.076;113.488;2023-02-22T07:42:02;4.97;;;2.20;;
60241;SDS011;46103;52.076;113.488;2023-02-22T07:45:10;6.25;;;2.65;;
60241;SDS011;46103;52.076;113.488;2023-02-22T07:48:14;6.32;;;2.90;;
60241;SDS011;46103;52.076;113.488;2023-02-22T07:51:18;5.63;;;2.95;;
60241;SDS011;46103;52.076;113.488;2023-02-22T07:54:23;4.55;;;2.42;;
60241;SDS011;46103;52.076;113.488;2023-02-22T07:57:26;7.47;;;3.38;;
60241;SDS011;46103;52.076;113.488;2023-02-22T08:00:35;7.10;;;3.38;;
60241;SDS011;46103;52.076;113.488;2023-02-22T08:03:40;5.38;;;3.15;;
60241;SDS011;46103;52.076;113.488;2023-02-22T08:06:44;7.93;;;3.35;;
60241;SDS011;46103;52.076;113.488;2023-02-22T08:09:48;9.60;;;3.75;;
60241;SDS011;46103;52.076;113.488;2023-02-22T08:12:52;7.10;;;3.45;;
60241;SDS011;46103;52.076;113.488;2023-02-22T08:15:56;13.95;;;5.03;;
60241;SDS011;46103;52.076;113.488;2023-02-22T08:18:59;15.13;;;5.28;;
60241;SDS011;46103;52.076;113.488;2023-02-22T08:22:04;9.68;;;2.90;;
60241;SDS011;46103;52.076;113.488;2023-02-22T08:25:08;7.78;;;3.58;;
60241;SDS011;46103;52.076;113.488;2023-02-22T08:28:13;9.20;;;3.85;;
60241;SDS011;46103;52.076;113.488;2023-02-22T08:31:18;22.13;;;6.65;;
60241;SDS011;46103;52.076;113.488;2023-02-22T08:34:22;18.88;;;6.93;;
60241;SDS011;46103;52.076;113.488;2023-02-22T08:37:25;17.23;;;5.68;;
60241;SDS011;46103;52.076;113.488;2023-02-22T08:40:34;21.25;;;6.63;;
60241;SDS011;46103;52.076;113.488;2023-02-22T08:44:03;17.77;;;6.97;;
60241;SDS011;46103;52.076;113.488;2023-02-22T08:47:08;24.90;;;8.98;;
60241;SDS011;46103;52.076;113.488;2023-02-22T08:50:27;20.58;;;7.82;;
60241;SDS011;46103;52.076;113.488;2023-02-22T08:53:39;24.45;;;8.23;;
60241;SDS011;46103;52.076;113.488;2023-02-22T08:56:46;24.48;;;9.20;;
60241;SDS011;46103;52.076;113.488;2023-02-22T09:00:37;30.77;;;11.48;;
60241;SDS011;46103;52.076;113.488;2023-02-22T09:03:41;34.47;;;11.70;;
60241;SDS011;46103;52.076;113.488;2023-02-22T09:07:20;19.17;;;7.85;;
60241;SDS011;46103;52.076;113.488;2023-02-22T09:10:31;9.18;;;4.97;;
60241;SDS011;46103;52.076;113.488;2023-02-22T09:13:51;22.15;;;8.10;;
60241;SDS011;46103;52.076;113.488;2023-02-22T09:17:12;29.50;;;9.35;;
60241;SDS011;46103;52.076;113.488;2023-02-22T09:24:01;15.20;;;6.43;;
60241;SDS011;46103;52.076;113.488;2023-02-22T09:28:27;13.52;;;5.45;;
60241;SDS011;46103;52.076;113.488;2023-02-22T09:31:33;25.63;;;7.68;;
60241;SDS011;46103;52.076;113.488;2023-02-22T09:36:27;27.58;;;10.25;;
60241;SDS011;46103;52.076;113.488;2023-02-22T09:44:26;31.70;;;12.15;;
60241;SDS011;46103;52.076;113.488;2023-02-22T10:19:06;29.63;;;8.75;;
60241;SDS011;46103;52.076;113.488;2023-02-22T10:38:36;22.85;;;8.45;;
60241;SDS011;46103;52.076;113.488;2023-02-22T10:42:06;22.73;;;8.30;;
60241;SDS011;46103;52.076;113.488;2023-02-22T10:46:07;82.60;;;28.35;;
60241;SDS011;46103;52.076;113.488;2023-02-22T10:49:54;64.00;;;22.88;;
60241;SDS011;46103;52.076;113.488;2023-02-22T10:53:58;104.28;;;35.65;;
60241;SDS011;46103;52.076;113.488;2023-02-22T10:58:24;50.13;;;17.83;;
60241;SDS011;46103;52.076;113.488;2023-02-22T11:19:23;30.00;;;11.07;;
60241;SDS011;46103;52.076;113.488;2023-02-22T11:22:34;31.95;;;11.55;;
60241;SDS011;46103;52.076;113.488;2023-02-22T11:25:42;26.48;;;11.27;;
60241;SDS011;46103;52.076;113.488;2023-02-22T11:28:48;27.45;;;9.57;;
60241;SDS011;46103;52.076;113.488;2023-02-22T11:31:58;24.20;;;10.05;;
60241;SDS011;46103;52.076;113.488;2023-02-22T11:38:32;13.50;;;5.40;;
60241;SDS011;46103;52.076;113.488;2023-02-22T11:41:39;24.00;;;9.57;;
60241;SDS011;46103;52.076;113.488;2023-02-22T11:44:43;25.73;;;9.05;;
60241;SDS011;46103;52.076;113.488;2023-02-22T11:51:05;21.02;;;8.63;;
60241;SDS011;46103;52.076;113.488;2023-02-22T11:58:03;24.52;;;8.05;;
60241;SDS011;46103;52.076;113.488;2023-02-22T12:14:22;50.47;;;19.75;;
60241;SDS011;46103;52.076;113.488;2023-02-22T12:21:10;26.08;;;12.48;;
60241;SDS011;46103;52.076;113.488;2023-02-22T12:24:19;25.15;;;7.95;;
60241;SDS011;46103;52.076;113.488;2023-02-22T12:27:35;43.15;;;15.50;;
60241;SDS011;46103;52.076;113.488;2023-02-22T12:30:44;55.45;;;18.88;;
60241;SDS011;46103;52.076;113.488;2023-02-22T12:37:34;75.55;;;26.90;;
60241;SDS011;46103;52.076;113.488;2023-02-22T12:44:17;41.78;;;15.60;;
60241;SDS011;46103;52.076;113.488;2023-02-22T12:47:38;34.95;;;11.80;;
60241;SDS011;46103;52.076;113.488;2023-02-22T12:50:51;29.45;;;11.98;;
60241;SDS011;46103;52.076;113.488;2023-02-22T12:57:25;32.60;;;12.98;;
60241;SDS011;46103;52.076;113.488;2023-02-22T13:03:54;50.15;;;17.23;;
60241;SDS011;46103;52.076;113.488;2023-02-22T13:13:34;43.13;;;14.80;;
60241;SDS011;46103;52.076;113.488;2023-02-22T13:20:28;44.17;;;15.02;;
60241;SDS011;46103;52.076;113.488;2023-02-22T13:26:59;33.42;;;13.15;;
60241;SDS011;46103;52.076;113.488;2023-02-22T13:30:43;45.30;;;15.38;;
60241;SDS011;46103;52.076;113.488;2023-02-22T13:33:49;21.73;;;7.00;;
60241;SDS011;46103;52.076;113.488;2023-02-22T13:40:39;35.58;;;14.40;;
60241;SDS011;46103;52.076;113.488;2023-02-22T13:50:48;46.33;;;15.98;;
60241;SDS011;46103;52.076;113.488;2023-02-22T13:54:15;39.47;;;15.75;;
60241;SDS011;46103;52.076;113.488;2023-02-22T14:03:46;26.73;;;10.80;;
60241;SDS011;46103;52.076;113.488;2023-02-22T14:06:49;48.45;;;15.57;;
60241;SDS011;46103;52.076;113.488;2023-02-22T14:09:53;53.42;;;15.90;;
60241;SDS011;46103;52.076;113.488;2023-02-22T14:13:07;31.23;;;11.20;;
60241;SDS011;46103;52.076;113.488;2023-02-22T14:19:15;49.63;;;15.75;;
60241;SDS011;46103;52.076;113.488;2023-02-22T14:22:28;43.58;;;15.75;;
60241;SDS011;46103;52.076;113.488;2023-02-22T14:28:47;52.72;;;18.92;;
60241;SDS011;46103;52.076;113.488;2023-02-22T14:32:17;31.50;;;12.10;;
60241;SDS011;46103;52.076;113.488;2023-02-22T14:35:22;55.15;;;20.90;;
60241;SDS011;46103;52.076;113.488;2023-02-22T14:38:39;36.85;;;16.10;;
60241;SDS011;46103;52.076;113.488;2023-02-22T14:41:52;55.28;;;15.48;;
60241;SDS011;46103;52.076;113.488;2023-02-22T14:52:13;36.92;;;13.40;;
60241;SDS011;46103;52.076;113.488;2023-02-22T14:54:57;31.92;;;12.50;;
60241;SDS011;46103;52.076;113.488;2023-02-22T14:58:14;38.03;;;12.80;;
60241;SDS011;46103;52.076;113.488;2023-02-22T15:01:27;20.52;;;8.63;;
60241;SDS011;46103;52.076;113.488;2023-02-22T15:07:59;19.42;;;7.60;;
60241;SDS011;46103;52.076;113.488;2023-02-22T15:11:03;21.90;;;8.48;;
60241;SDS011;46103;52.076;113.488;2023-02-22T15:14:15;17.05;;;6.85;;
60241;SDS011;46103;52.076;113.488;2023-02-22T15:17:27;19.40;;;7.65;;
60241;SDS011;46103;52.076;113.488;2023-02-22T15:20:33;23.08;;;9.25;;
60241;SDS011;46103;52.076;113.488;2023-02-22T15:23:42;20.90;;;8.85;;
60241;SDS011;46103;52.076;113.488;2023-02-22T15:26:46;25.00;;;10.23;;
60241;SDS011;46103;52.076;113.488;2023-02-22T15:30:23;25.92;;;10.40;;
60241;SDS011;46103;52.076;113.488;2023-02-22T15:33:29;18.80;;;7.68;;
60241;SDS011;46103;52.076;113.488;2023-02-22T15:36:39;13.50;;;6.13;;
60241;SDS011;46103;52.076;113.488;2023-02-22T15:39:44;13.35;;;6.88;;
60241;SDS011;46103;52.076;113.488;2023-02-22T15:42:51;14.48;;;5.95;;
60241;SDS011;46103;52.076;113.488;2023-02-22T15:46:00;14.57;;;5.88;;
60241;SDS011;46103;52.076;113.488;2023-02-22T15:52:20;12.00;;;5.00;;
60241;SDS011;46103;52.076;113.488;2023-02-22T15:55:28;10.70;;;4.53;;
60241;SDS011;46103;52.076;113.488;2023-02-22T15:58:41;12.02;;;5.38;;
60241;SDS011;46103;52.076;113.488;2023-02-22T16:01:49;13.27;;;5.45;;
60241;SDS011;46103;52.076;113.488;2023-02-22T16:05:03;12.65;;;5.18;;
60241;SDS011;46103;52.076;113.488;2023-02-22T16:15:24;8.55;;;5.15;;
60241;SDS011;46103;52.076;113.488;2023-02-22T16:18:34;12.85;;;5.40;;
60241;SDS011;46103;52.076;113.488;2023-02-22T16:21:55;14.98;;;4.78;;
60241;SDS011;46103;52.076;113.488;2023-02-22T16:25:12;16.67;;;5.95;;
60241;SDS011;46103;52.076;113.488;2023-02-22T16:28:27;14.25;;;5.35;;
60241;SDS011;46103;52.076;113.488;2023-02-22T16:31:33;23.08;;;7.05;;
60241;SDS011;46103;52.076;113.488;2023-02-22T16:34:39;16.40;;;7.10;;
60241;SDS011;46103;52.076;113.488;2023-02-22T16:37:47;16.17;;;6.00;;
60241;SDS011;46103;52.076;113.488;2023-02-22T16:40:52;14.63;;;5.53;;
60241;SDS011;46103;52.076;113.488;2023-02-22T16:43:57;10.18;;;4.82;;
60241;SDS011;46103;52.076;113.488;2023-02-22T16:47:01;14.32;;;5.03;;
60241;SDS011;46103;52.076;113.488;2023-02-22T16:50:04;18.92;;;6.13;;
60241;SDS011;46103;52.076;113.488;2023-02-22T16:53:08;19.88;;;6.15;;
60241;SDS011;46103;52.076;113.488;2023-02-22T16:56:12;10.75;;;5.50;;
60241;SDS011;46103;52.076;113.488;2023-02-22T16:59:18;14.88;;;4.95;;
60241;SDS011;46103;52.076;113.488;2023-02-22T17:02:23;5.18;;;3.35;;
60241;SDS011;46103;52.076;113.488;2023-02-22T17:05:26;7.30;;;3.60;;
60241;SDS011;46103;52.076;113.488;2023-02-22T17:08:30;10.80;;;3.95;;
60241;SDS011;46103;52.076;113.488;2023-02-22T17:11:34;3.63;;;1.75;;
60241;SDS011;46103;52.076;113.488;2023-02-22T17:14:39;11.88;;;4.70;;
60241;SDS011;46103;52.076;113.488;2023-02-22T17:17:46;7.05;;;3.75;;
60241;SDS011;46103;52.076;113.488;2023-02-22T17:20:51;10.98;;;4.63;;
60241;SDS011;46103;52.076;113.488;2023-02-22T17:23:56;13.77;;;5.63;;
60241;SDS011;46103;52.076;113.488;2023-02-22T17:27:00;7.18;;;2.95;;
60241;SDS011;46103;52.076;113.488;2023-02-22T17:30:04;14.15;;;4.70;;
60241;SDS011;46103;52.076;113.488;2023-02-22T17:33:12;6.88;;;3.63;;
60241;SDS011;46103;52.076;113.488;2023-02-22T17:36:18;11.65;;;4.30;;
60241;SDS011;46103;52.076;113.488;2023-02-22T17:39:22;13.75;;;5.72;;
60241;SDS011;46103;52.076;113.488;2023-02-22T17:42:26;12.95;;;5.57;;
60241;SDS011;46103;52.076;113.488;2023-02-22T17:45:29;17.58;;;5.18;;
60241;SDS011;46103;52.076;113.488;2023-02-22T17:48:33;18.48;;;5.30;;
60241;SDS011;46103;52.076;113.488;2023-02-22T17:51:37;13.77;;;5.93;;
60241;SDS011;46103;52.076;113.488;2023-02-22T17:54:42;14.25;;;5.63;;
60241;SDS011;46103;52.076;113.488;2023-02-22T17:57:47;10.43;;;4.15;;
60241;SDS011;46103;52.076;113.488;2023-02-22T18:00:59;10.55;;;4.75;;
60241;SDS011;46103;52.076;113.488;2023-02-22T18:04:03;25.45;;;6.15;;
60241;SDS011;46103;52.076;113.488;2023-02-22T18:07:06;11.27;;;4.57;;
60241;SDS011;46103;52.076;113.488;2023-02-22T18:10:10;14.18;;;5.15;;
60241;SDS011;46103;52.076;113.488;2023-02-22T18:13:14;16.38;;;5.35;;
60241;SDS011;46103;52.076;113.488;2023-02-22T18:16:19;11.40;;;5.82;;
60241;SDS011;46103;52.076;113.488;2023-02-22T18:19:23;12.02;;;4.80;;
60241;SDS011;46103;52.076;113.488;2023-02-22T18:22:26;14.60;;;5.18;;
60241;SDS011;46103;52.076;113.488;2023-02-22T18:25:29;9.77;;;4.68;;
60241;SDS011;46103;52.076;113.488;2023-02-22T18:28:35;13.40;;;5.40;;
60241;SDS011;46103;52.076;113.488;2023-02-22T18:31:39;6.38;;;3.67;;
60241;SDS011;46103;52.076;113.488;2023-02-22T18:34:43;9.32;;;3.85;;
60241;SDS011;46103;52.076;113.488;2023-02-22T18:37:46;10.82;;;3.90;;
60241;SDS011;46103;52.076;113.488;2023-02-22T18:44:06;8.88;;;3.22;;
60241;SDS011;46103;52.076;113.488;2023-02-22T18:47:12;7.22;;;3.58;;
60241;SDS011;46103;52.076;113.488;2023-02-22T18:50:16;9.02;;;4.32;;
60241;SDS011;46103;52.076;113.488;2023-02-22T18:53:20;8.27;;;4.07;;
60241;SDS011;46103;52.076;113.488;2023-02-22T18:56:25;10.48;;;4.15;;
60241;SDS011;46103;52.076;113.488;2023-02-22T18:59:32;10.55;;;4.05;;
60241;SDS011;46103;52.076;113.488;2023-02-22T19:02:36;5.53;;;3.78;;
60241;SDS011;46103;52.076;113.488;2023-02-22T19:05:39;6.85;;;3.72;;
60241;SDS011;46103;52.076;113.488;2023-02-22T19:08:43;5.75;;;2.90;;
60241;SDS011;46103;52.076;113.488;2023-02-22T19:11:47;5.82;;;3.30;;
60241;SDS011;46103;52.076;113.488;2023-02-22T19:14:53;10.50;;;3.45;;
60241;SDS011;46103;52.076;113.488;2023-02-22T19:17:55;7.47;;;2.67;;
60241;SDS011;46103;52.076;113.488;2023-02-22T19:21:00;7.78;;;3.40;;
60241;SDS011;46103;52.076;113.488;2023-02-22T19:24:05;9.13;;;4.05;;
60241;SDS011;46103;52.076;113.488;2023-02-22T19:27:09;5.00;;;3.25;;
60241;SDS011;46103;52.076;113.488;2023-02-22T19:30:13;6.60;;;3.28;;
60241;SDS011;46103;52.076;113.488;2023-02-22T19:33:18;6.57;;;3.70;;
60241;SDS011;46103;52.076;113.488;2023-02-22T19:36:22;7.82;;;2.92;;
60241;SDS011;46103;52.076;113.488;2023-02-22T19:39:26;6.00;;;3.17;;
60241;SDS011;46103;52.076;113.488;2023-02-22T19:42:31;5.70;;;2.65;;
60241;SDS011;46103;52.076;113.488;2023-02-22T19:45:37;10.45;;;4.97;;
60241;SDS011;46103;52.076;113.488;2023-02-22T19:48:42;7.57;;;3.57;;
60241;SDS011;46103;52.076;113.488;2023-02-22T19:51:52;13.02;;;3.80;;
60241;SDS011;46103;52.076;113.488;2023-02-22T19:58:02;5.90;;;2.10;;
60241;SDS011;46103;52.076;113.488;2023-02-22T20:04:18;6.20;;;2.88;;
60241;SDS011;46103;52.076;113.488;2023-02-22T20:07:25;8.23;;;3.75;;
60241;SDS011;46103;52.076;113.488;2023-02-22T20:10:28;5.72;;;3.53;;
60241;SDS011;46103;52.076;113.488;2023-02-22T20:13:31;15.55;;;3.25;;
60241;SDS011;46103;52.076;113.488;2023-02-22T20:16:34;13.88;;;3.83;;
60241;SDS011;46103;52.076;113.488;2023-02-22T20:19:38;4.20;;;2.03;;
60241;SDS011;46103;52.076;113.488;2023-02-22T20:22:42;8.52;;;3.25;;
60241;SDS011;46103;52.076;113.488;2023-02-22T20:25:50;4.70;;;2.63;;
60241;SDS011;46103;52.076;113.488;2023-02-22T20:28:57;5.03;;;2.60;;
60241;SDS011;46103;52.076;113.488;2023-02-22T20:32:01;6.88;;;2.75;;
60241;SDS011;46103;52.076;113.488;2023-02-22T20:35:05;10.07;;;3.63;;
60241;SDS011;46103;52.076;113.488;2023-02-22T20:38:08;10.65;;;2.53;;
60241;SDS011;46103;52.076;113.488;2023-02-22T20:41:14;3.53;;;2.10;;
60241;SDS011;46103;52.076;113.488;2023-02-22T20:44:23;6.60;;;3.33;;
60241;SDS011;46103;52.076;113.488;2023-02-22T20:47:27;8.18;;;3.60;;
60241;SDS011;46103;52.076;113.488;2023-02-22T20:50:31;6.47;;;2.58;;
60241;SDS011;46103;52.076;113.488;2023-02-22T20:53:37;6.55;;;3.08;;
60241;SDS011;46103;52.076;113.488;2023-02-22T20:56:43;3.17;;;2.38;;
60241;SDS011;46103;52.076;113.488;2023-02-22T20:59:46;6.47;;;3.15;;
60241;SDS011;46103;52.076;113.488;2023-02-22T21:02:50;5.53;;;3.17;;
60241;SDS011;46103;52.076;113.488;2023-02-22T21:05:53;4.88;;;2.38;;
60241;SDS011;46103;52.076;113.488;2023-02-22T21:08:58;4.22;;;2.60;;
60241;SDS011;46103;52.076;113.488;2023-02-22T21:12:01;4.85;;;2.80;;
60241;SDS011;46103;52.076;113.488;2023-02-22T21:15:05;15.95;;;3.10;;
60241;SDS011;46103;52.076;113.488;2023-02-22T21:18:09;6.18;;;1.85;;
60241;SDS011;46103;52.076;113.488;2023-02-22T21:21:13;4.70;;;2.33;;
60241;SDS011;46103;52.076;113.488;2023-02-22T21:24:17;2.83;;;1.83;;
60241;SDS011;46103;52.076;113.488;2023-02-22T21:27:20;5.70;;;2.20;;
60241;SDS011;46103;52.076;113.488;2023-02-22T21:30:24;5.80;;;2.47;;
60241;SDS011;46103;52.076;113.488;2023-02-22T21:33:28;4.47;;;2.40;;
60241;SDS011;46103;52.076;113.488;2023-02-22T21:36:32;7.00;;;3.17;;
60241;SDS011;46103;52.076;113.488;2023-02-22T21:39:36;6.72;;;3.20;;